createdAt,value
2018-11-21T00:00:21.890Z,98622.66
2018-11-21T00:02:50.947Z,98629.60
2018-11-21T00:05:20.292Z,98639.01
2018-11-21T00:07:49.793Z,98609.95
2018-11-21T00:10:18.854Z,98605.81
2018-11-21T00:12:54.331Z,98604.58
2018-11-21T00:15:23.648Z,98611.90
2018-11-21T00:17:53.428Z,98622.86
2018-11-21T00:20:22.278Z,98612.09
2018-11-21T00:22:50.932Z,98614.84
2018-11-21T00:25:19.679Z,98639.78
2018-11-21T00:27:48.179Z,98649.50
2018-11-21T00:30:18.462Z,98648.88
2018-11-21T00:32:46.971Z,98632.64
2018-11-21T00:35:16.178Z,98636.03
2018-11-21T00:37:44.437Z,98631.74
2018-11-21T00:40:14.323Z,98645.81
2018-11-21T00:42:46.748Z,98648.08
2018-11-21T00:45:11.680Z,98647.89
2018-11-21T00:47:40.429Z,98644.04
2018-11-21T00:50:08.937Z,98644.56
2018-11-21T00:52:37.591Z,98651.83
2018-11-21T00:55:06.845Z,98644.98
2018-11-21T00:57:35.345Z,98644.07
2018-11-21T01:00:03.976Z,98643.29
2018-11-21T01:02:32.476Z,98646.66
2018-11-21T01:05:00.947Z,98659.97
2018-11-21T01:07:29.551Z,98657.03
2018-11-21T01:09:58.028Z,98649.97
2018-11-21T01:12:26.592Z,98654.63
2018-11-21T01:14:55.071Z,98660.41
2018-11-21T01:17:23.576Z,98666.83
2018-11-21T01:19:52.048Z,98672.20
2018-11-21T01:22:20.516Z,98677.08
2018-11-21T01:24:49.393Z,98680.78
2018-11-21T01:27:17.863Z,98674.55
2018-11-21T01:29:46.371Z,98679.09
2018-11-21T01:32:14.873Z,98683.51
2018-11-21T01:34:43.389Z,98691.00
2018-11-21T01:37:11.861Z,98692.70
2018-11-21T01:39:40.656Z,98695.02
2018-11-21T01:42:09.045Z,98697.80
2018-11-21T01:44:37.566Z,98715.52
2018-11-21T01:47:06.187Z,98719.41
2018-11-21T01:49:34.663Z,98696.78
2018-11-21T01:52:03.168Z,98708.39
2018-11-21T01:54:31.639Z,98718.39
2018-11-21T01:57:00.156Z,98715.58
2018-11-21T01:59:28.633Z,98719.94
2018-11-21T02:01:57.158Z,98711.16
2018-11-21T02:04:25.624Z,98713.52
2018-11-21T02:06:54.134Z,98714.47
2018-11-21T02:09:22.605Z,98717.24
2018-11-21T02:11:51.112Z,98713.30
2018-11-21T02:14:19.676Z,98714.22
2018-11-21T02:16:48.201Z,98722.00
2018-11-21T02:19:16.684Z,98726.53
2018-11-21T02:21:45.152Z,98724.95
2018-11-21T02:24:13.661Z,98726.70
2018-11-21T02:26:42.127Z,98730.59
2018-11-21T02:29:10.631Z,98722.58
2018-11-21T02:31:39.092Z,98727.19
2018-11-21T02:34:07.598Z,98717.98
2018-11-21T02:36:36.054Z,98720.75
2018-11-21T02:39:08.106Z,98726.01
2018-11-21T02:41:36.995Z,98730.55
2018-11-21T02:44:05.861Z,98735.14
2018-11-21T02:46:34.581Z,98732.48
2018-11-21T02:49:03.417Z,98729.59
2018-11-21T02:51:31.879Z,98730.67
2018-11-21T02:54:00.352Z,98715.50
2018-11-21T02:57:06.330Z,98708.62
2018-11-21T02:59:34.790Z,98718.00
2018-11-21T03:02:03.294Z,98712.48
2018-11-21T03:04:31.775Z,98714.56
2018-11-21T03:07:00.267Z,98715.80
2018-11-21T03:09:28.734Z,98709.44
2018-11-21T03:11:57.252Z,98706.13
2018-11-21T03:14:25.722Z,98710.12
2018-11-21T03:16:54.221Z,98709.18
2018-11-21T03:19:22.715Z,98724.00
2018-11-21T03:21:51.213Z,98735.44
2018-11-21T03:24:19.677Z,98742.73
2018-11-21T03:26:48.188Z,98742.39
2018-11-21T03:29:16.655Z,98739.80
2018-11-21T03:31:45.156Z,98730.91
2018-11-21T03:34:13.624Z,98735.31
2018-11-21T03:36:48.170Z,98741.81
2018-11-21T03:39:17.326Z,98750.52
2018-11-21T03:41:46.468Z,98753.05
2018-11-21T03:44:14.956Z,98762.86
2018-11-21T03:46:44.459Z,98747.17
2018-11-21T03:49:12.922Z,98739.62
2018-11-21T03:51:41.680Z,98747.22
2018-11-21T03:54:10.421Z,98742.87
2018-11-21T03:56:39.565Z,98750.41
2018-11-21T03:59:08.691Z,98757.31
2018-11-21T04:01:37.448Z,98753.11
2018-11-21T04:04:06.777Z,98757.59
2018-11-21T04:06:35.238Z,98758.67
2018-11-21T04:09:05.073Z,98754.95
2018-11-21T04:11:33.539Z,98753.19
2018-11-21T04:14:02.069Z,98760.20
2018-11-21T04:16:30.528Z,98761.31
2018-11-21T04:18:59.014Z,98768.16
2018-11-21T04:21:27.590Z,98779.38
2018-11-21T04:23:56.100Z,98778.00
2018-11-21T04:26:24.600Z,98781.20
2018-11-21T04:28:53.104Z,98788.72
2018-11-21T04:31:21.560Z,98798.75
2018-11-21T04:33:50.039Z,98805.89
2018-11-21T04:36:18.534Z,98813.41
2018-11-21T04:39:00.679Z,98808.05
2018-11-21T04:41:29.164Z,98801.22
2018-11-21T04:43:57.631Z,98798.17
2018-11-21T04:46:26.146Z,98800.33
2018-11-21T04:48:54.607Z,98802.80
2018-11-21T04:51:23.074Z,98806.22
2018-11-21T04:53:51.572Z,98802.27
2018-11-21T04:56:20.035Z,98798.61
2018-11-21T04:58:48.542Z,98796.80
2018-11-21T05:01:17.041Z,98798.49
2018-11-21T05:03:45.534Z,98789.94
2018-11-21T05:06:13.996Z,98801.66
2018-11-21T05:08:42.493Z,98812.37
2018-11-21T05:11:11.205Z,98806.44
2018-11-21T05:13:39.717Z,98800.37
2018-11-21T05:16:08.205Z,98808.26
2018-11-21T05:18:36.709Z,98811.17
2018-11-21T05:21:05.287Z,98823.33
2018-11-21T05:23:33.882Z,98829.17
2018-11-21T05:26:02.343Z,98837.36
2018-11-21T05:28:30.836Z,98836.87
2018-11-21T05:30:59.301Z,98838.13
2018-11-21T05:33:28.079Z,98834.91
2018-11-21T05:35:56.538Z,98837.21
2018-11-21T05:38:25.059Z,98843.84
2018-11-21T05:40:53.517Z,98850.78
2018-11-21T05:43:22.022Z,98845.16
2018-11-21T05:45:50.480Z,98842.08
2018-11-21T05:48:18.986Z,98842.66
2018-11-21T05:50:47.454Z,98840.48
2018-11-21T05:53:15.956Z,98847.55
2018-11-21T05:55:44.417Z,98855.67
2018-11-21T05:58:12.922Z,98863.09
2018-11-21T06:00:49.135Z,98853.69
2018-11-21T06:03:13.692Z,98852.39
2018-11-21T06:05:42.155Z,98849.80
2018-11-21T06:08:10.684Z,98851.27
2018-11-21T06:10:39.150Z,98839.86
2018-11-21T06:13:07.686Z,98843.23
2018-11-21T06:15:36.150Z,98857.48
2018-11-21T06:18:05.003Z,98853.70
2018-11-21T06:20:33.500Z,98852.05
2018-11-21T06:23:01.966Z,98859.61
2018-11-21T06:25:30.662Z,98872.58
2018-11-21T06:27:59.138Z,98881.92
2018-11-21T06:30:27.642Z,98880.28
2018-11-21T06:32:56.116Z,98882.21
2018-11-21T06:35:24.759Z,98882.65
2018-11-21T06:37:53.229Z,98887.56
2018-11-21T06:40:21.721Z,98887.10
2018-11-21T06:42:54.315Z,98883.62
2018-11-21T06:45:24.162Z,98904.34
2018-11-21T06:47:52.630Z,98919.70
2018-11-21T06:50:21.330Z,98920.23
2018-11-21T06:52:50.078Z,98909.03
2018-11-21T06:55:18.589Z,98919.34
2018-11-21T06:57:47.095Z,98926.34
2018-11-21T07:00:15.606Z,98935.17
2018-11-21T07:02:44.105Z,98930.17
2018-11-21T07:05:12.751Z,98938.28
2018-11-21T07:07:41.211Z,98944.76
2018-11-21T07:10:12.149Z,98947.81
2018-11-21T07:12:40.671Z,98940.44
2018-11-21T07:15:09.488Z,98950.05
2018-11-21T07:17:38.308Z,98959.27
2018-11-21T07:20:09.017Z,98971.77
2018-11-21T07:22:39.811Z,98968.14
2018-11-21T07:25:35.148Z,98971.83
2018-11-21T07:28:03.675Z,98978.36
2018-11-21T07:30:32.161Z,98978.08
2018-11-21T07:33:00.625Z,98968.86
2018-11-21T07:35:29.126Z,98968.44
2018-11-21T07:37:57.600Z,98974.81
2018-11-21T07:40:26.113Z,98980.83
2018-11-21T07:42:54.583Z,98977.20
2018-11-21T07:45:23.755Z,98975.34
2018-11-21T07:47:51.572Z,98975.40
2018-11-21T07:50:21.227Z,98978.56
2018-11-21T07:52:49.713Z,98979.19
2018-11-21T07:55:18.328Z,98974.67
2018-11-21T07:57:48.756Z,98978.03
2018-11-21T08:00:54.147Z,98985.23
2018-11-21T08:03:23.667Z,98989.96
2018-11-21T08:05:54.845Z,98996.77
2018-11-21T08:08:48.351Z,99005.97
2018-11-21T08:11:34.526Z,99008.20
2018-11-21T08:14:20.640Z,99016.88
2018-11-21T08:17:13.990Z,99029.80
2018-11-21T08:20:16.898Z,99034.50
2018-11-21T08:23:08.136Z,99031.56
2018-11-21T08:25:58.515Z,99051.33
2018-11-21T08:28:30.911Z,99050.61
2018-11-21T08:30:59.412Z,99064.14
2018-11-21T08:33:33.852Z,99073.28
2018-11-21T08:35:57.125Z,99074.69
2018-11-21T08:38:25.594Z,99072.98
2018-11-21T08:40:54.220Z,99079.98
2018-11-21T08:43:22.702Z,99084.28
2018-11-21T08:45:51.273Z,99084.50
2018-11-21T08:48:20.565Z,99079.48
2018-11-21T08:50:49.069Z,99069.86
2018-11-21T08:53:17.576Z,99075.62
2018-11-21T08:55:46.051Z,99076.73
2018-11-21T08:58:15.000Z,99075.38
2018-11-21T09:00:43.521Z,99087.00
2018-11-21T09:03:14.254Z,99092.75
2018-11-21T09:05:42.786Z,99096.65
2018-11-21T09:08:11.291Z,99098.00
2018-11-21T09:10:39.755Z,99101.95
2018-11-21T09:13:08.272Z,99105.67
2018-11-21T09:15:37.137Z,99115.95
2018-11-21T09:18:05.894Z,99121.20
2018-11-21T09:20:34.388Z,99124.41
2018-11-21T09:23:02.913Z,99128.72
2018-11-21T09:25:31.982Z,99134.39
2018-11-21T09:28:00.538Z,99131.94
2018-11-21T09:30:29.013Z,99134.36
2018-11-21T09:32:58.163Z,99139.48
2018-11-21T09:35:26.679Z,99145.13
2018-11-21T09:37:55.811Z,99146.73
2018-11-21T09:40:24.644Z,99138.80
2018-11-21T09:42:55.441Z,99144.34
2018-11-21T09:45:25.206Z,99135.99
2018-11-21T09:47:53.687Z,99141.23
2018-11-21T09:50:29.432Z,99140.03
2018-11-21T09:53:00.282Z,99136.70
2018-11-21T09:55:29.164Z,99142.13
2018-11-21T09:57:57.893Z,99143.88
2018-11-21T10:01:03.424Z,99136.74
2018-11-21T10:03:33.354Z,99138.90
2018-11-21T10:06:19.823Z,99134.86
2018-11-21T10:08:50.216Z,99129.66
2018-11-21T10:11:18.960Z,99138.05
2018-11-21T10:13:47.516Z,99136.55
2018-11-21T10:16:16.503Z,99131.92
2018-11-21T10:18:46.966Z,99135.04
2018-11-21T10:21:17.198Z,99121.42
2018-11-21T10:23:48.133Z,99130.80
2018-11-21T10:26:17.709Z,99144.28
2018-11-21T10:28:48.010Z,99144.44
2018-11-21T10:31:16.832Z,99151.85
2018-11-21T10:33:49.161Z,99152.86
2018-11-21T10:36:17.958Z,99152.47
2018-11-21T10:38:46.420Z,99151.39
2018-11-21T10:41:14.922Z,99160.31
2018-11-21T10:43:43.378Z,99162.61
2018-11-21T10:46:11.884Z,99152.39
2018-11-21T10:48:40.369Z,99149.02
2018-11-21T10:51:09.876Z,99156.32
2018-11-21T10:53:39.280Z,99155.91
2018-11-21T10:56:08.806Z,99161.08
2018-11-21T10:58:38.206Z,99161.02
2018-11-21T11:01:24.317Z,99162.95
2018-11-21T11:04:23.900Z,99152.61
2018-11-21T11:07:10.147Z,99155.87
2018-11-21T11:09:51.769Z,99144.51
2018-11-21T11:12:40.521Z,99139.39
2018-11-21T11:15:37.497Z,99150.20
2018-11-21T11:18:32.337Z,99149.70
2018-11-21T11:21:19.078Z,99143.31
2018-11-21T11:27:41.731Z,99155.49
2018-11-21T11:30:39.229Z,99159.16
2018-11-21T11:33:26.374Z,99153.31
2018-11-21T11:36:13.312Z,99158.58
2018-11-21T11:38:56.395Z,99159.73
2018-11-21T11:41:42.621Z,99171.17
2018-11-21T11:44:29.958Z,99171.00
2018-11-21T11:47:17.829Z,99173.83
2018-11-21T11:49:57.730Z,99166.73
2018-11-21T11:52:45.320Z,99168.09
2018-11-21T11:55:32.503Z,99169.64
2018-11-21T11:58:38.100Z,99169.69
2018-11-21T12:01:45.059Z,99162.30
2018-11-21T12:04:36.448Z,99167.76
2018-11-21T12:07:25.439Z,99175.38
2018-11-21T12:10:12.591Z,99167.45
2018-11-21T12:13:06.939Z,99163.80
2018-11-21T12:16:10.818Z,99165.44
2018-11-21T12:19:04.348Z,99161.47
2018-11-21T12:21:51.759Z,99154.80
